Time;durP1;ratioP1;P1;durP2;ratioP2;P2;SDS_P1;SDS_P2;PMS_P1;PMS_P2;Temp;Humidity;BMP_temperature;BMP_pressure;BME280_temperature;BME280_humidity;BME280_pressure;Samples;Min_cycle;Max_cycle;Signal;HPM_P1;HPM_P2
2020/12/28 00:01:55;;;;;;;2.80;1.53;;;7.30;79.20;;;;;;5008656;28;20476;-74
2020/12/28 00:04:20;;;;;;;1.90;1.00;;;7.30;79.20;;;;;;5008014;28;20530;-74
2020/12/28 00:06:47;;;;;;;0.80;0.70;;;7.30;79.20;;;;;;5016198;28;20201;-73
2020/12/28 00:09:13;;;;;;;1.93;0.80;;;7.30;79.20;;;;;;5027903;28;20221;-74
2020/12/28 00:11:39;;;;;;;2.00;0.93;;;7.30;79.00;;;;;;5014794;28;20961;-74
2020/12/28 00:14:05;;;;;;;1.43;1.00;;;7.20;79.50;;;;;;5028639;28;20497;-73
2020/12/28 00:16:34;;;;;;;1.77;1.00;;;7.20;80.00;;;;;;5029083;28;20974;-75
2020/12/28 00:19:00;;;;;;;1.00;0.77;;;7.10;80.00;;;;;;5028095;28;20439;-74
2020/12/28 00:21:26;;;;;;;1.37;0.87;;;7.10;80.60;;;;;;5027776;28;20440;-74
2020/12/28 00:23:52;;;;;;;1.83;0.90;;;7.00;80.60;;;;;;5028555;28;20299;-73
2020/12/28 00:26:18;;;;;;;2.13;0.80;;;6.90;81.10;;;;;;5029600;28;20453;-74
2020/12/28 00:28:44;;;;;;;1.90;0.90;;;6.90;81.20;;;;;;5031118;28;20973;-74
2020/12/28 00:31:10;;;;;;;1.57;0.90;;;6.80;81.70;;;;;;5032128;28;20432;-74
2020/12/28 00:33:36;;;;;;;1.73;1.00;;;6.70;81.90;;;;;;5029785;28;20566;-75
2020/12/28 00:36:02;;;;;;;1.40;1.00;;;6.70;81.90;;;;;;5013688;28;20443;-75
2020/12/28 00:38:28;;;;;;;2.23;1.00;;;6.60;82.40;;;;;;5028484;28;20451;-74
2020/12/28 00:40:54;;;;;;;3.87;1.60;;;6.60;82.80;;;;;;5029096;28;20271;-74
2020/12/28 00:43:19;;;;;;;2.20;1.10;;;6.60;82.70;;;;;;5023128;28;20986;-75
2020/12/28 00:45:54;;;;;;;1.83;1.30;;;6.60;83.00;;;;;;5105371;27;20552;-73
2020/12/28 00:48:21;;;;;;;3.53;2.03;;;6.50;83.60;;;;;;5104960;28;20429;-73
2020/12/28 00:50:47;;;;;;;1.63;0.90;;;6.50;83.80;;;;;;5107212;28;20549;-73
2020/12/28 00:53:13;;;;;;;1.43;1.27;;;6.50;83.80;;;;;;5103769;28;20444;-73
2020/12/28 00:55:39;;;;;;;1.50;1.03;;;6.40;83.70;;;;;;5104766;28;20687;-73
2020/12/28 00:58:05;;;;;;;1.10;0.90;;;6.40;83.60;;;;;;5105635;28;20265;-73
2020/12/28 01:00:30;;;;;;;1.80;1.00;;;6.40;83.60;;;;;;5105188;28;20285;-72
2020/12/28 01:02:56;;;;;;;2.67;1.30;;;6.40;83.80;;;;;;5105646;28;20519;-72
2020/12/28 01:05:22;;;;;;;1.03;0.87;;;6.50;83.70;;;;;;5106283;28;20214;-73
2020/12/28 01:07:47;;;;;;;1.07;1.00;;;6.50;83.70;;;;;;5106010;28;20190;-74
2020/12/28 01:10:13;;;;;;;1.50;0.87;;;6.50;83.60;;;;;;5106254;28;20212;-73
2020/12/28 01:12:39;;;;;;;1.73;0.80;;;6.60;83.40;;;;;;5099887;28;20202;-74
2020/12/28 01:15:05;;;;;;;0.90;0.80;;;6.60;83.40;;;;;;5105403;28;20460;-74
2020/12/28 01:17:30;;;;;;;3.27;1.70;;;6.60;83.40;;;;;;5104375;28;20285;-73
2020/12/28 01:19:56;;;;;;;5.50;2.23;;;6.60;83.80;;;;;;5105260;28;20212;-75
2020/12/28 01:22:22;;;;;;;7.47;3.63;;;6.60;83.70;;;;;;5106084;28;20211;-75
2020/12/28 01:24:47;;;;;;;7.20;2.80;;;6.70;83.70;;;;;;5106474;28;20214;-75
2020/12/28 01:27:13;;;;;;;3.83;1.90;;;6.50;84.00;;;;;;5106776;28;20181;-75
2020/12/28 01:29:39;;;;;;;3.90;2.40;;;6.50;84.40;;;;;;5107363;28;20183;-75
2020/12/28 01:32:04;;;;;;;4.13;1.93;;;6.40;85.00;;;;;;5107094;28;20214;-76
2020/12/28 01:34:30;;;;;;;4.40;2.10;;;6.30;85.60;;;;;;5103548;28;20650;-73
2020/12/28 01:36:56;;;;;;;5.20;2.13;;;6.20;85.70;;;;;;5104102;28;20186;-74
2020/12/28 01:39:22;;;;;;;3.53;1.60;;;6.20;85.90;;;;;;5104832;28;20847;-73
2020/12/28 01:41:47;;;;;;;2.17;1.57;;;6.20;86.20;;;;;;5091080;28;20195;-72
2020/12/28 01:44:13;;;;;;;4.57;1.10;;;6.20;86.30;;;;;;5107961;28;20226;-75
2020/12/28 01:46:39;;;;;;;1.90;1.00;;;6.20;86.50;;;;;;5112313;28;20198;-72
2020/12/28 01:49:05;;;;;;;1.43;1.07;;;6.20;86.30;;;;;;5111591;28;20932;-72
2020/12/28 01:51:32;;;;;;;1.80;1.17;;;6.30;86.50;;;;;;5108108;28;20193;-73
2020/12/28 01:53:58;;;;;;;1.30;1.07;;;6.30;86.30;;;;;;5109942;28;20950;-72
2020/12/28 01:56:27;;;;;;;1.97;1.00;;;6.30;86.50;;;;;;5095099;28;20437;-73
2020/12/28 01:58:52;;;;;;;1.17;0.93;;;6.40;86.60;;;;;;5093685;28;20180;-74
2020/12/28 02:01:19;;;;;;;1.57;0.90;;;6.40;86.60;;;;;;5093092;28;20516;-73
2020/12/28 02:03:46;;;;;;;1.73;1.00;;;6.50;86.60;;;;;;5092728;28;20573;-73
2020/12/28 02:06:12;;;;;;;1.67;1.20;;;6.50;86.60;;;;;;5092635;28;20431;-76
2020/12/28 02:08:38;;;;;;;1.23;0.90;;;6.50;86.60;;;;;;5093565;28;20425;-75
2020/12/28 02:11:04;;;;;;;2.70;1.13;;;6.60;86.80;;;;;;5092928;28;20428;-74
2020/12/28 02:13:30;;;;;;;2.20;1.10;;;6.50;87.00;;;;;;5080979;28;20228;-74
2020/12/28 02:15:55;;;;;;;1.07;0.93;;;6.60;87.70;;;;;;5093925;28;20183;-75
2020/12/28 02:18:21;;;;;;;1.60;1.20;;;6.60;88.00;;;;;;5098973;28;20187;-74
2020/12/28 02:20:47;;;;;;;1.30;0.87;;;6.60;88.40;;;;;;5101758;28;20632;-74
2020/12/28 02:23:13;;;;;;;1.87;1.10;;;6.50;89.60;;;;;;5092413;28;20202;-76
2020/12/28 02:25:39;;;;;;;1.77;1.10;;;6.50;90.20;;;;;;5092071;28;20549;-76
2020/12/28 02:28:04;;;;;;;1.30;1.07;;;6.50;90.50;;;;;;5093015;28;20185;-75
2020/12/28 02:30:30;;;;;;;1.90;1.40;;;6.50;90.80;;;;;;5090550;28;20187;-76
2020/12/28 02:32:56;;;;;;;2.47;1.20;;;6.40;91.10;;;;;;5091301;28;20211;-76
2020/12/28 02:35:22;;;;;;;1.33;1.30;;;6.30;91.50;;;;;;5091041;28;20198;-75
2020/12/28 02:37:47;;;;;;;6.33;1.17;;;6.30;91.70;;;;;;5089987;28;20277;-76
2020/12/28 02:40:13;;;;;;;2.97;1.07;;;6.30;91.90;;;;;;5091569;28;20190;-77
2020/12/28 02:42:39;;;;;;;1.80;1.27;;;6.30;92.10;;;;;;5090216;28;20211;-77
2020/12/28 02:45:05;;;;;;;1.60;1.10;;;6.30;92.30;;;;;;5090855;28;20756;-75
2020/12/28 02:47:30;;;;;;;2.10;1.20;;;6.30;92.40;;;;;;5091798;28;20240;-75
2020/12/28 02:49:56;;;;;;;1.30;1.03;;;6.30;92.40;;;;;;5090761;28;20191;-75
2020/12/28 02:52:22;;;;;;;1.40;0.93;;;6.20;92.60;;;;;;5093383;28;20232;-75
2020/12/28 02:54:47;;;;;;;1.57;1.30;;;6.10;93.10;;;;;;5092637;28;20179;-76
2020/12/28 02:57:13;;;;;;;1.77;1.20;;;6.00;93.50;;;;;;5095332;28;20183;-75
2020/12/28 02:59:39;;;;;;;1.30;1.17;;;6.00;93.80;;;;;;5095312;28;20214;-75
2020/12/28 03:02:04;;;;;;;1.57;1.00;;;5.90;94.10;;;;;;5095375;28;20251;-74
2020/12/28 03:04:30;;;;;;;1.67;1.20;;;5.90;94.30;;;;;;5095500;28;20202;-76
2020/12/28 03:06:56;;;;;;;1.60;1.00;;;5.80;94.60;;;;;;5092936;28;20187;-77
2020/12/28 03:09:22;;;;;;;3.13;1.20;;;5.70;94.80;;;;;;5097139;28;20428;-76
2020/12/28 03:11:47;;;;;;;2.20;1.00;;;5.70;95.10;;;;;;5092568;28;20650;-76
2020/12/28 03:14:13;;;;;;;1.30;1.10;;;5.70;95.30;;;;;;5082560;28;20552;-77
2020/12/28 03:16:39;;;;;;;1.20;0.83;;;5.70;95.40;;;;;;5089097;28;20670;-75
2020/12/28 03:19:04;;;;;;;1.30;0.87;;;5.70;95.40;;;;;;5089088;28;20187;-75
2020/12/28 03:21:30;;;;;;;1.30;0.90;;;5.70;95.20;;;;;;5089820;28;20266;-76
2020/12/28 03:23:56;;;;;;;0.80;0.70;;;5.70;95.10;;;;;;5088907;28;20211;-74
2020/12/28 03:26:21;;;;;;;1.30;0.80;;;5.60;95.20;;;;;;5089649;28;20202;-75
2020/12/28 03:28:47;;;;;;;1.40;0.90;;;5.60;95.20;;;;;;5089737;28;20195;-74
2020/12/28 03:31:13;;;;;;;1.10;0.80;;;5.60;95.50;;;;;;5090015;28;20183;-74
2020/12/28 03:33:38;;;;;;;1.23;0.90;;;5.70;95.40;;;;;;5090100;28;20796;-74
2020/12/28 03:36:04;;;;;;;1.73;0.90;;;5.70;95.40;;;;;;5089400;28;20650;-75
2020/12/28 03:38:30;;;;;;;2.57;0.87;;;5.60;95.20;;;;;;5089671;28;20190;-75
2020/12/28 03:40:56;;;;;;;1.43;0.87;;;5.60;95.10;;;;;;5088238;28;20289;-74
2020/12/28 03:43:21;;;;;;;2.67;1.00;;;5.60;95.10;;;;;;5088328;28;20252;-74
2020/12/28 03:45:47;;;;;;;1.47;1.00;;;5.50;95.20;;;;;;5087438;28;20226;-75
2020/12/28 03:48:12;;;;;;;1.40;0.87;;;5.60;95.10;;;;;;5089590;28;20175;-74
2020/12/28 03:50:38;;;;;;;1.07;0.90;;;5.50;95.10;;;;;;5089820;28;20571;-75
2020/12/28 03:53:04;;;;;;;1.90;0.90;;;5.60;95.00;;;;;;5089371;28;20207;-75
2020/12/28 03:55:30;;;;;;;1.00;0.80;;;5.60;94.80;;;;;;5088874;28;20184;-75
2020/12/28 03:57:55;;;;;;;2.63;0.80;;;5.60;94.80;;;;;;5089707;28;21020;-74
2020/12/28 04:00:21;;;;;;;1.10;0.80;;;5.60;94.70;;;;;;5089731;28;20232;-75
2020/12/28 04:02:49;;;;;;;1.33;0.90;;;5.60;94.80;;;;;;5089350;28;20210;-74
2020/12/28 04:05:15;;;;;;;2.33;0.90;;;5.50;94.70;;;;;;5088699;28;20205;-74
2020/12/28 04:07:41;;;;;;;2.30;1.10;;;5.50;94.70;;;;;;5087730;28;20433;-74
2020/12/28 04:10:07;;;;;;;3.87;0.93;;;5.40;94.70;;;;;;5090028;28;20782;-76
2020/12/28 04:12:32;;;;;;;1.20;0.77;;;5.40;94.80;;;;;;5089853;28;20282;-77
2020/12/28 04:14:58;;;;;;;1.70;1.00;;;5.50;94.80;;;;;;5087261;28;20191;-75
2020/12/28 04:17:24;;;;;;;1.00;0.90;;;5.50;94.60;;;;;;5087905;28;20187;-75
2020/12/28 04:19:50;;;;;;;1.53;0.90;;;5.50;94.40;;;;;;5087969;28;20213;-75
2020/12/28 04:22:15;;;;;;;1.13;1.00;;;5.40;94.30;;;;;;5091727;28;20267;-75
2020/12/28 04:24:41;;;;;;;3.57;1.00;;;5.40;94.40;;;;;;5088670;28;20287;-77
2020/12/28 04:27:07;;;;;;;2.57;1.10;;;5.40;94.30;;;;;;5089585;28;20187;-76
2020/12/28 04:29:33;;;;;;;1.13;0.90;;;5.40;94.40;;;;;;5090152;28;20190;-74
2020/12/28 04:31:58;;;;;;;1.60;1.03;;;5.40;94.50;;;;;;5084675;28;20221;-74
2020/12/28 04:34:24;;;;;;;0.97;0.90;;;5.50;94.60;;;;;;5087538;28;20194;-73
2020/12/28 04:36:50;;;;;;;1.40;0.90;;;5.50;94.60;;;;;;5089212;28;20814;-74
2020/12/28 04:39:15;;;;;;;0.70;0.60;;;5.50;94.50;;;;;;5089170;28;20182;-74
2020/12/28 04:41:41;;;;;;;1.60;0.83;;;5.50;94.20;;;;;;5075968;28;20208;-74
2020/12/28 04:44:07;;;;;;;1.10;0.70;;;5.50;94.00;;;;;;5087200;28;20319;-74
2020/12/28 04:46:36;;;;;;;0.87;0.70;;;5.50;93.90;;;;;;5088655;28;20184;-75
2020/12/28 04:49:02;;;;;;;1.30;0.73;;;5.40;93.80;;;;;;5088661;28;20179;-74
2020/12/28 04:51:27;;;;;;;1.00;0.80;;;5.40;93.90;;;;;;5088663;28;20504;-74
2020/12/28 04:53:54;;;;;;;3.07;1.20;;;5.40;94.00;;;;;;5088190;28;20563;-74
2020/12/28 04:56:20;;;;;;;0.93;0.90;;;5.40;93.90;;;;;;5088419;28;20269;-74
2020/12/28 04:58:47;;;;;;;1.10;0.90;;;5.40;93.80;;;;;;5087144;28;21109;-74
2020/12/28 05:01:12;;;;;;;0.77;0.73;;;5.40;93.90;;;;;;5088795;28;20762;-75
2020/12/28 05:03:38;;;;;;;1.83;1.00;;;5.40;93.90;;;;;;5087836;28;20486;-74
2020/12/28 05:06:04;;;;;;;1.50;0.90;;;5.50;93.90;;;;;;5088181;28;20213;-74
2020/12/28 05:08:29;;;;;;;1.43;1.20;;;5.50;93.80;;;;;;5087080;28;20225;-74
2020/12/28 05:11:06;;;;;;;3.10;1.53;;;5.50;93.60;;;;;;5089266;28;20182;-75
2020/12/28 05:13:32;;;;;;;1.57;1.20;;;5.50;93.50;;;;;;5077968;28;20665;-74
2020/12/28 05:15:57;;;;;;;2.40;0.90;;;5.40;93.50;;;;;;5090670;28;20427;-77
2020/12/28 05:18:24;;;;;;;1.00;0.93;;;5.50;93.60;;;;;;5095429;28;20195;-75
2020/12/28 05:20:50;;;;;;;1.10;1.00;;;5.60;93.40;;;;;;5085086;28;20719;-73
2020/12/28 05:23:17;;;;;;;1.80;1.03;;;5.60;93.00;;;;;;5090367;28;20459;-75
2020/12/28 05:25:52;;;;;;;1.23;1.00;;;5.60;93.10;;;;;;5089966;28;20986;-74
2020/12/28 05:28:25;;;;;;;1.50;0.90;;;5.60;92.70;;;;;;5090248;28;20420;-74
2020/12/28 05:30:51;;;;;;;1.50;0.80;;;5.60;92.60;;;;;;5089883;28;20908;-73
2020/12/28 05:33:18;;;;;;;2.20;1.00;;;5.70;92.90;;;;;;5091288;28;20429;-74
2020/12/28 05:35:44;;;;;;;0.97;0.60;;;5.60;92.90;;;;;;5091655;28;20503;-74
2020/12/28 05:38:12;;;;;;;2.30;0.90;;;5.60;92.60;;;;;;5092508;28;20420;-74
2020/12/28 05:40:38;;;;;;;0.90;0.70;;;5.60;92.70;;;;;;5088990;28;20468;-74
2020/12/28 05:43:04;;;;;;;0.60;0.60;;;5.70;92.80;;;;;;5084976;28;20448;-73
2020/12/28 05:45:32;;;;;;;0.80;0.73;;;5.70;92.80;;;;;;5093843;28;20481;-74
2020/12/28 05:47:59;;;;;;;1.20;0.80;;;5.70;92.70;;;;;;5096935;28;20499;-74
2020/12/28 05:50:30;;;;;;;1.20;0.70;;;5.60;92.80;;;;;;5096897;28;20508;-74
2020/12/28 05:53:01;;;;;;;1.50;0.80;;;5.60;92.90;;;;;;5095228;28;20507;-73
2020/12/28 05:55:31;;;;;;;0.70;0.70;;;5.60;93.00;;;;;;5079807;28;20421;-73
2020/12/28 05:57:58;;;;;;;1.10;0.77;;;5.60;93.10;;;;;;5091808;28;20528;-73
2020/12/28 06:00:25;;;;;;;1.37;0.93;;;5.50;93.50;;;;;;5092164;28;20447;-74
2020/12/28 06:02:51;;;;;;;3.23;0.80;;;5.60;93.60;;;;;;5091597;28;20879;-73
2020/12/28 06:05:18;;;;;;;1.50;1.00;;;5.60;93.60;;;;;;5091523;28;20969;-72
2020/12/28 06:07:45;;;;;;;1.00;0.77;;;5.50;93.50;;;;;;5090477;28;20910;-73
2020/12/28 06:10:12;;;;;;;0.90;0.70;;;5.50;93.60;;;;;;5090878;28;20421;-74
2020/12/28 06:12:39;;;;;;;0.70;0.70;;;5.40;93.80;;;;;;5076616;28;20446;-73
2020/12/28 06:15:20;;;;;;;1.07;0.70;;;5.40;93.90;;;;;;5078551;28;20976;-73
2020/12/28 06:17:46;;;;;;;0.70;0.70;;;5.30;94.20;;;;;;5091340;28;20478;-73
2020/12/28 06:20:12;;;;;;;0.80;0.70;;;5.30;94.40;;;;;;5090526;28;20460;-73
2020/12/28 06:22:40;;;;;;;1.70;0.90;;;5.30;94.70;;;;;;5090384;28;20473;-74
2020/12/28 06:25:07;;;;;;;1.50;0.87;;;5.30;94.90;;;;;;5091968;28;20213;-74
2020/12/28 06:27:34;;;;;;;0.93;0.70;;;5.30;95.00;;;;;;5091806;28;20421;-74
2020/12/28 06:30:11;;;;;;;1.30;0.90;;;5.20;95.20;;;;;;5092188;28;20409;-74
2020/12/28 06:32:37;;;;;;;0.60;0.60;;;5.20;95.30;;;;;;5091436;28;20436;-74
2020/12/28 06:35:07;;;;;;;1.53;0.87;;;5.20;95.50;;;;;;5089967;28;20471;-74
2020/12/28 06:38:00;;;;;;;1.10;0.83;;;5.20;95.60;;;;;;5091607;28;20424;-75
2020/12/28 06:40:35;;;;;;;1.90;1.10;;;5.20;95.90;;;;;;5090958;28;20484;-75
2020/12/28 06:43:12;;;;;;;2.30;1.30;;;5.20;96.10;;;;;;5090637;28;20451;-74
2020/12/28 06:45:40;;;;;;;1.07;1.00;;;5.20;96.00;;;;;;5090445;28;20465;-74
2020/12/28 06:48:25;;;;;;;1.40;1.00;;;5.20;96.10;;;;;;5089690;28;20501;-74
2020/12/28 06:50:53;;;;;;;1.30;1.03;;;5.20;96.20;;;;;;5078267;28;20447;-73
2020/12/28 06:53:26;;;;;;;1.37;1.03;;;5.10;96.10;;;;;;5090689;28;20433;-73
2020/12/28 06:55:52;;;;;;;2.30;1.17;;;5.10;96.30;;;;;;5090379;28;21015;-75
2020/12/28 06:58:18;;;;;;;2.03;0.90;;;5.10;96.40;;;;;;5090700;28;20447;-74
2020/12/28 07:00:44;;;;;;;1.83;0.97;;;5.00;96.30;;;;;;5089715;28;20433;-74
2020/12/28 07:03:15;;;;;;;2.03;0.90;;;5.00;96.40;;;;;;5089084;28;20449;-74
2020/12/28 07:05:41;;;;;;;1.70;0.90;;;5.00;96.50;;;;;;5090573;28;20457;-76
2020/12/28 07:08:07;;;;;;;2.23;0.90;;;5.00;96.60;;;;;;5090320;28;20413;-74
2020/12/28 07:10:32;;;;;;;1.00;0.80;;;4.90;96.50;;;;;;5089393;28;20464;-74
2020/12/28 07:13:06;;;;;;;1.97;1.03;;;4.90;96.70;;;;;;5074903;28;20938;-74
2020/12/28 07:15:33;;;;;;;0.90;0.80;;;4.90;96.90;;;;;;5090159;28;20689;-75
2020/12/28 07:18:05;;;;;;;2.83;1.00;;;4.90;96.80;;;;;;5089379;28;20429;-73
2020/12/28 07:20:31;;;;;;;2.13;1.10;;;4.80;96.70;;;;;;5083254;28;20532;-75
2020/12/28 07:22:57;;;;;;;1.53;0.93;;;4.80;96.90;;;;;;5088033;28;21042;-75
2020/12/28 07:25:22;;;;;;;1.20;1.00;;;4.80;97.00;;;;;;5090208;28;20211;-73
2020/12/28 07:27:48;;;;;;;2.30;0.97;;;4.80;97.00;;;;;;5091444;28;20442;-74
2020/12/28 07:30:14;;;;;;;0.40;0.30;;;4.80;97.00;;;;;;5090085;28;20189;-76
2020/12/28 07:32:40;;;;;;;2.13;1.00;;;4.80;97.20;;;;;;5091048;28;20211;-75
2020/12/28 07:35:07;;;;;;;1.93;0.97;;;4.70;97.40;;;;;;5094032;28;20627;-73
2020/12/28 07:37:38;;;;;;;2.40;0.87;;;4.70;97.60;;;;;;5093385;28;20433;-74
2020/12/28 07:40:05;;;;;;;1.17;1.13;;;4.80;97.80;;;;;;5096847;28;20450;-73
2020/12/28 07:42:31;;;;;;;1.80;1.27;;;4.80;97.90;;;;;;5093549;28;20453;-74
2020/12/28 07:45:07;;;;;;;2.63;1.03;;;4.80;97.90;;;;;;5088032;28;21060;-73
2020/12/28 07:47:46;;;;;;;0.93;0.90;;;4.80;97.80;;;;;;5090456;28;20225;-73
2020/12/28 07:50:14;;;;;;;2.30;1.37;;;4.80;97.70;;;;;;5090696;28;20421;-73
2020/12/28 07:53:14;;;;;;;1.00;0.90;;;4.90;97.70;;;;;;5088903;28;20444;-73
2020/12/28 07:56:04;;;;;;;2.37;1.17;;;4.80;97.50;;;;;;5074158;28;20437;-74
2020/12/28 07:59:08;;;;;;;1.80;1.60;;;4.80;97.50;;;;;;5089369;28;20421;-73
2020/12/28 08:01:51;;;;;;;2.10;1.47;;;4.80;97.60;;;;;;5087462;28;20998;-73
2020/12/28 08:04:22;;;;;;;2.10;1.60;;;4.90;97.50;;;;;;5086846;28;20560;-73
2020/12/28 08:06:49;;;;;;;2.13;1.50;;;4.90;97.40;;;;;;5074101;28;20425;-74
2020/12/28 08:09:21;;;;;;;1.73;1.37;;;4.90;97.30;;;;;;5087564;28;20895;-73
2020/12/28 08:11:59;;;;;;;1.40;1.20;;;5.00;97.50;;;;;;5080787;28;20961;-73
2020/12/28 08:14:25;;;;;;;1.77;1.10;;;5.00;97.60;;;;;;5081758;28;20421;-73
2020/12/28 08:16:51;;;;;;;2.87;1.20;;;4.90;97.50;;;;;;5067836;28;20533;-73
2020/12/28 08:19:29;;;;;;;1.77;1.30;;;5.00;97.60;;;;;;5083257;28;20433;-74
2020/12/28 08:21:55;;;;;;;1.83;1.20;;;4.90;97.50;;;;;;5086805;28;20498;-76
2020/12/28 08:24:22;;;;;;;2.53;1.40;;;4.90;97.40;;;;;;5086698;28;20465;-75
2020/12/28 08:26:49;;;;;;;2.93;1.67;;;4.90;97.40;;;;;;5081165;28;20424;-76
2020/12/28 08:29:16;;;;;;;3.73;1.80;;;4.80;97.60;;;;;;5069755;28;20425;-75
2020/12/28 08:31:42;;;;;;;1.97;1.70;;;4.90;97.90;;;;;;5087039;28;20441;-74
2020/12/28 08:34:09;;;;;;;1.77;1.37;;;5.00;98.00;;;;;;5079152;28;20457;-75
2020/12/28 08:36:37;;;;;;;3.27;1.40;;;5.00;97.90;;;;;;5084498;28;20453;-74
2020/12/28 08:39:12;;;;;;;3.92;2.20;;;4.90;97.90;;;;;;5087783;28;21031;-74
2020/12/28 08:41:38;;;;;;;1.70;1.57;;;4.90;98.10;;;;;;5088501;28;20187;-74
2020/12/28 08:44:04;;;;;;;2.50;1.67;;;5.00;98.20;;;;;;5088203;28;20897;-74
2020/12/28 08:46:30;;;;;;;3.13;1.50;;;5.00;97.80;;;;;;5087481;28;20512;-74
2020/12/28 08:48:55;;;;;;;4.97;1.33;;;4.90;97.40;;;;;;5088430;28;20217;-74
2020/12/28 08:51:21;;;;;;;7.50;1.40;;;4.90;97.40;;;;;;5086861;28;20211;-74
2020/12/28 08:53:51;;;;;;;4.87;1.47;;;4.90;97.30;;;;;;5087290;28;20210;-74
2020/12/28 08:56:17;;;;;;;5.53;1.67;;;5.00;97.40;;;;;;5087839;28;20723;-73
2020/12/28 08:58:44;;;;;;;6.27;1.67;;;4.90;97.50;;;;;;5087252;28;20433;-74
2020/12/28 09:01:10;;;;;;;3.80;1.33;;;4.90;97.70;;;;;;5087140;28;20504;-74
2020/12/28 09:03:37;;;;;;;2.00;1.47;;;5.00;97.80;;;;;;5086891;28;20528;-74
2020/12/28 09:06:04;;;;;;;4.97;1.23;;;5.00;97.80;;;;;;5087478;28;20464;-73
2020/12/28 09:08:30;;;;;;;17.67;1.30;;;5.10;97.90;;;;;;5079185;28;20453;-74
2020/12/28 09:10:56;;;;;;;13.97;1.40;;;5.10;97.90;;;;;;5090346;28;20445;-75
2020/12/28 09:13:22;;;;;;;19.47;1.10;;;5.20;97.70;;;;;;5089506;28;20498;-74
2020/12/28 09:15:48;;;;;;;10.13;1.10;;;5.20;97.50;;;;;;5088432;28;20425;-74
2020/12/28 09:18:14;;;;;;;14.53;1.10;;;5.20;97.30;;;;;;5089464;28;21287;-74
2020/12/28 09:20:40;;;;;;;20.60;1.20;;;5.30;97.20;;;;;;5090028;28;20428;-75
2020/12/28 09:23:05;;;;;;;22.17;1.13;;;5.30;97.00;;;;;;5090985;28;20532;-74
2020/12/28 09:25:31;;;;;;;27.13;1.30;;;5.30;96.90;;;;;;5087972;28;21039;-74
2020/12/28 09:27:57;;;;;;;21.27;1.43;;;5.30;96.80;;;;;;5089652;28;20229;-74
2020/12/28 09:30:23;;;;;;;24.20;1.40;;;5.40;96.70;;;;;;5088370;28;20929;-74
2020/12/28 09:32:50;;;;;;;28.70;1.90;;;5.40;96.70;;;;;;5089975;28;21004;-74
2020/12/28 09:35:16;;;;;;;27.17;1.70;;;5.40;96.70;;;;;;5089698;28;20428;-74
2020/12/28 09:37:42;;;;;;;21.60;1.80;;;5.30;96.70;;;;;;5087451;28;20480;-74
2020/12/28 09:40:08;;;;;;;25.30;1.67;;;5.40;96.70;;;;;;5090303;28;20473;-75
2020/12/28 09:42:33;;;;;;;17.43;1.30;;;5.40;96.60;;;;;;5087720;28;20278;-76
2020/12/28 09:44:59;;;;;;;2.17;1.47;;;5.40;96.50;;;;;;5090127;28;20465;-74
2020/12/28 09:47:25;;;;;;;1.83;1.20;;;5.40;96.40;;;;;;5089726;28;20854;-74
2020/12/28 09:49:51;;;;;;;2.20;1.57;;;5.50;96.50;;;;;;5090227;28;20203;-74
2020/12/28 09:52:16;;;;;;;3.80;1.90;;;5.50;96.50;;;;;;5090449;28;20221;-74
2020/12/28 09:54:42;;;;;;;3.60;2.00;;;5.60;96.40;;;;;;5089630;28;20606;-75
2020/12/28 09:57:08;;;;;;;5.00;1.73;;;5.60;96.20;;;;;;5090133;28;20187;-75
2020/12/28 09:59:38;;;;;;;4.20;1.73;;;5.60;96.20;;;;;;5091271;28;20175;-74
2020/12/28 10:02:05;;;;;;;2.20;1.70;;;5.60;95.80;;;;;;5091577;28;20697;-74
2020/12/28 10:04:31;;;;;;;2.30;1.53;;;5.60;95.80;;;;;;5090640;28;21033;-73
2020/12/28 10:06:57;;;;;;;3.73;2.43;;;5.60;96.00;;;;;;5090906;28;20417;-74
2020/12/28 10:09:23;;;;;;;3.70;2.17;;;5.70;96.10;;;;;;5091237;28;20183;-74
2020/12/28 10:11:49;;;;;;;4.50;2.17;;;5.70;96.00;;;;;;5091827;28;20546;-75
2020/12/28 10:14:15;;;;;;;4.30;2.30;;;5.60;95.70;;;;;;5092030;28;20240;-75
2020/12/28 10:16:42;;;;;;;4.50;2.53;;;5.60;95.60;;;;;;5091229;28;20187;-75
2020/12/28 10:19:08;;;;;;;2.33;2.10;;;5.50;95.90;;;;;;5094933;28;20418;-76
2020/12/28 10:21:34;;;;;;;5.50;2.80;;;5.60;96.10;;;;;;5093388;28;20429;-74
2020/12/28 10:24:00;;;;;;;2.73;2.27;;;5.70;96.00;;;;;;5098662;28;20454;-75
2020/12/28 10:26:27;;;;;;;5.93;4.00;;;5.70;95.80;;;;;;5101010;28;20512;-74
2020/12/28 10:28:55;;;;;;;5.33;4.13;;;5.70;95.60;;;;;;5104769;28;20425;-75
2020/12/28 10:31:22;;;;;;;4.20;2.93;;;5.70;95.70;;;;;;5102051;28;20522;-75
2020/12/28 10:33:49;;;;;;;4.27;2.93;;;5.80;95.60;;;;;;5097501;28;20468;-77
2020/12/28 10:36:23;;;;;;;9.20;3.00;;;5.90;95.50;;;;;;5096753;28;20505;-76
2020/12/28 10:38:51;;;;;;;4.03;2.90;;;5.90;94.90;;;;;;5098243;28;20424;-75
2020/12/28 10:41:32;;;;;;;5.50;3.80;;;5.90;95.00;;;;;;5104705;28;20428;-75
2020/12/28 10:43:59;;;;;;;5.37;3.67;;;5.90;94.90;;;;;;5105347;28;20432;-74
2020/12/28 10:46:25;;;;;;;3.87;3.00;;;6.00;94.90;;;;;;5097467;28;20432;-76
2020/12/28 10:48:51;;;;;;;6.43;3.83;;;6.00;94.40;;;;;;5100305;28;20428;-76
2020/12/28 10:51:17;;;;;;;5.03;3.60;;;6.00;94.40;;;;;;5105023;28;20453;-76
2020/12/28 10:53:43;;;;;;;5.10;2.70;;;6.00;94.20;;;;;;5098952;28;20207;-79
2020/12/28 10:56:09;;;;;;;6.03;3.20;;;5.90;93.30;;;;;;5095346;28;20465;-74
2020/12/28 10:58:35;;;;;;;5.90;2.70;;;5.90;93.10;;;;;;5092604;28;20472;-76
2020/12/28 11:01:03;;;;;;;5.17;3.40;;;5.90;93.20;;;;;;5092525;28;20493;-76
2020/12/28 11:03:29;;;;;;;4.60;2.90;;;6.00;93.10;;;;;;5092657;28;20555;-75
2020/12/28 11:05:55;;;;;;;4.33;3.00;;;6.00;92.60;;;;;;5089805;28;20873;-75
2020/12/28 11:08:21;;;;;;;5.67;3.13;;;5.90;92.50;;;;;;5090577;28;20183;-75
2020/12/28 11:10:46;;;;;;;7.63;3.57;;;5.90;92.50;;;;;;5089369;28;20198;-76
2020/12/28 11:13:12;;;;;;;19.00;7.77;;;5.80;92.40;;;;;;5075095;28;20299;-75
2020/12/28 11:15:38;;;;;;;7.43;4.00;;;5.80;92.50;;;;;;5090132;28;20263;-74
2020/12/28 11:18:05;;;;;;;6.63;3.53;;;5.80;92.60;;;;;;5089982;28;20195;-76
2020/12/28 11:20:30;;;;;;;4.77;2.93;;;5.70;92.60;;;;;;5090660;28;20199;-76
2020/12/28 11:22:56;;;;;;;5.63;3.03;;;5.80;92.80;;;;;;5091856;28;20555;-75
2020/12/28 11:25:22;;;;;;;5.20;3.10;;;5.80;92.80;;;;;;5091461;28;20879;-74
2020/12/28 11:27:48;;;;;;;5.30;3.20;;;5.80;92.40;;;;;;5091318;28;20191;-75
2020/12/28 11:30:13;;;;;;;6.50;2.97;;;5.80;92.40;;;;;;5090558;28;20187;-76
2020/12/28 11:32:41;;;;;;;4.00;2.60;;;5.80;92.60;;;;;;5090838;28;20443;-76
2020/12/28 11:35:07;;;;;;;4.93;3.07;;;5.90;92.40;;;;;;5089422;28;20191;-75
2020/12/28 11:37:32;;;;;;;4.07;2.70;;;6.00;92.10;;;;;;5091429;28;20431;-75
2020/12/28 11:39:59;;;;;;;3.67;2.70;;;5.90;92.00;;;;;;5091589;28;20244;-75
2020/12/28 11:42:29;;;;;;;3.93;2.67;;;5.90;92.00;;;;;;5091255;28;20214;-75
2020/12/28 11:44:55;;;;;;;4.57;2.60;;;6.00;92.10;;;;;;5089692;28;20479;-74
2020/12/28 11:47:21;;;;;;;2.73;2.30;;;6.00;91.70;;;;;;5091792;28;20425;-75
2020/12/28 11:49:46;;;;;;;3.67;2.63;;;6.00;91.40;;;;;;5091536;28;20786;-76
2020/12/28 11:52:13;;;;;;;3.30;2.37;;;6.00;91.50;;;;;;5091416;28;20195;-76
2020/12/28 11:54:39;;;;;;;3.23;2.50;;;6.10;91.20;;;;;;5091324;28;20183;-76
2020/12/28 11:57:04;;;;;;;3.50;2.20;;;6.10;91.00;;;;;;5096390;28;21158;-75
2020/12/28 11:59:30;;;;;;;4.90;2.47;;;6.20;90.70;;;;;;5097478;28;20425;-75
2020/12/28 12:01:56;;;;;;;4.67;2.67;;;6.20;90.50;;;;;;5093624;28;20376;-76
2020/12/28 12:04:48;;;;;;;5.27;2.80;;;6.30;90.60;;;;;;5092873;28;20464;-77
2020/12/28 12:07:07;;;;;;;6.53;2.63;;;6.30;90.40;;;;;;5093177;28;20738;-77
2020/12/28 12:09:33;;;;;;;3.50;2.50;;;6.30;90.40;;;;;;5092027;28;20421;-77
2020/12/28 12:11:59;;;;;;;5.30;2.97;;;6.40;90.20;;;;;;5086926;28;20257;-74
2020/12/28 12:14:24;;;;;;;7.07;3.30;;;6.40;89.60;;;;;;5097100;28;20194;-75
2020/12/28 12:16:52;;;;;;;5.80;2.93;;;6.40;89.60;;;;;;5105819;28;20185;-76
2020/12/28 12:19:18;;;;;;;4.90;3.17;;;6.40;89.30;;;;;;5097277;28;20194;-76
2020/12/28 12:21:44;;;;;;;3.53;2.60;;;6.30;88.40;;;;;;5091511;28;20418;-76
2020/12/28 12:24:09;;;;;;;5.30;3.10;;;6.30;88.70;;;;;;5090545;28;20997;-75
2020/12/28 12:26:35;;;;;;;4.30;3.20;;;6.30;89.00;;;;;;5091067;28;20198;-75
2020/12/28 12:29:03;;;;;;;3.67;3.00;;;6.40;88.60;;;;;;5090990;28;20183;-76
2020/12/28 12:31:28;;;;;;;5.33;3.07;;;6.40;89.00;;;;;;5090179;28;20658;-76
2020/12/28 12:33:54;;;;;;;4.30;2.90;;;6.40;88.40;;;;;;5090748;28;20437;-76
2020/12/28 12:36:20;;;;;;;5.00;2.90;;;6.40;88.00;;;;;;5089087;28;20249;-76
2020/12/28 12:38:45;;;;;;;5.20;2.60;;;6.30;88.30;;;;;;5089556;28;20191;-76
2020/12/28 12:41:15;;;;;;;4.50;3.00;;;6.30;87.80;;;;;;5088696;28;20214;-75
2020/12/28 12:43:41;;;;;;;4.90;2.97;;;6.30;88.40;;;;;;5089635;28;20331;-75
2020/12/28 12:46:09;;;;;;;4.00;2.90;;;6.30;89.20;;;;;;5089461;28;20468;-76
2020/12/28 12:48:37;;;;;;;5.60;3.13;;;6.20;90.20;;;;;;5089311;28;20928;-77
2020/12/28 12:51:03;;;;;;;7.07;2.97;;;6.10;91.00;;;;;;5090795;28;20432;-76
2020/12/28 12:53:28;;;;;;;6.40;2.70;;;6.10;91.30;;;;;;5093030;28;20433;-76
2020/12/28 12:55:54;;;;;;;6.80;2.50;;;6.00;91.70;;;;;;5099119;28;20255;-75